sensor_id;sensor_type;location;lat;lon;timestamp;temperature;humidity
13596;DHT22;6868;52.544;13.416;2022-07-29T00:01:36;16.20;99.90
13596;DHT22;6868;52.544;13.416;2022-07-29T00:04:03;16.20;99.90
13596;DHT22;6868;52.544;13.416;2022-07-29T00:06:31;16.20;99.90
13596;DHT22;6868;52.544;13.416;2022-07-29T00:08:58;16.20;99.90
13596;DHT22;6868;52.544;13.416;2022-07-29T00:11:24;16.20;99.90
13596;DHT22;6868;52.544;13.416;2022-07-29T00:13:51;16.20;99.90
13596;DHT22;6868;52.544;13.416;2022-07-29T00:16:18;16.10;99.90
13596;DHT22;6868;52.544;13.416;2022-07-29T00:18:44;16.10;99.90
13596;DHT22;6868;52.544;13.416;2022-07-29T00:21:11;16.00;99.90
13596;DHT22;6868;52.544;13.416;2022-07-29T00:23:39;16.20;99.90
13596;DHT22;6868;52.544;13.416;2022-07-29T00:26:06;16.00;99.90
13596;DHT22;6868;52.544;13.416;2022-07-29T00:28:33;16.00;99.90
13596;DHT22;6868;52.544;13.416;2022-07-29T00:30:59;16.00;99.90
13596;DHT22;6868;52.544;13.416;2022-07-29T00:33:26;16.00;99.90
13596;DHT22;6868;52.544;13.416;2022-07-29T00:35:53;16.00;99.90
13596;DHT22;6868;52.544;13.416;2022-07-29T00:38:19;16.00;99.90
13596;DHT22;6868;52.544;13.416;2022-07-29T00:40:47;15.90;99.90
13596;DHT22;6868;52.544;13.416;2022-07-29T00:43:14;15.90;99.90
13596;DHT22;6868;52.544;13.416;2022-07-29T00:45:41;15.80;99.90
13596;DHT22;6868;52.544;13.416;2022-07-29T00:48:07;15.70;99.90
13596;DHT22;6868;52.544;13.416;2022-07-29T00:50:35;15.70;99.90
13596;DHT22;6868;52.544;13.416;2022-07-29T00:53:02;15.80;99.90
13596;DHT22;6868;52.544;13.416;2022-07-29T00:55:29;15.80;99.90
13596;DHT22;6868;52.544;13.416;2022-07-29T00:57:58;15.70;99.90
13596;DHT22;6868;52.544;13.416;2022-07-29T01:00:26;15.80;99.90
13596;DHT22;6868;52.544;13.416;2022-07-29T01:02:52;15.60;99.90
13596;DHT22;6868;52.544;13.416;2022-07-29T01:05:20;15.60;99.90
13596;DHT22;6868;52.544;13.416;2022-07-29T01:07:48;15.50;99.90
13596;DHT22;6868;52.544;13.416;2022-07-29T01:10:15;15.50;99.90
13596;DHT22;6868;52.544;13.416;2022-07-29T01:12:43;15.50;99.90
13596;DHT22;6868;52.544;13.416;2022-07-29T01:15:11;15.50;99.90
13596;DHT22;6868;52.544;13.416;2022-07-29T01:17:40;15.70;99.90
13596;DHT22;6868;52.544;13.416;2022-07-29T01:20:10;15.70;99.90
13596;DHT22;6868;52.544;13.416;2022-07-29T01:22:44;15.60;99.90
13596;DHT22;6868;52.544;13.416;2022-07-29T01:25:30;15.70;99.90
13596;DHT22;6868;52.544;13.416;2022-07-29T01:28:03;15.70;99.90
13596;DHT22;6868;52.544;13.416;2022-07-29T01:30:35;15.60;99.90
13596;DHT22;6868;52.544;13.416;2022-07-29T01:33:06;16.10;99.90
13596;DHT22;6868;52.544;13.416;2022-07-29T01:35:35;15.50;99.90
13596;DHT22;6868;52.544;13.416;2022-07-29T01:38:05;15.40;99.90
13596;DHT22;6868;52.544;13.416;2022-07-29T01:40:34;15.30;99.90
13596;DHT22;6868;52.544;13.416;2022-07-29T01:43:03;15.30;99.90
13596;DHT22;6868;52.544;13.416;2022-07-29T01:45:32;15.30;99.90
13596;DHT22;6868;52.544;13.416;2022-07-29T01:48:10;15.30;99.90
13596;DHT22;6868;52.544;13.416;2022-07-29T01:50:40;15.10;99.90
13596;DHT22;6868;52.544;13.416;2022-07-29T01:53:10;15.10;99.90
13596;DHT22;6868;52.544;13.416;2022-07-29T01:55:41;15.10;99.90
13596;DHT22;6868;52.544;13.416;2022-07-29T01:58:09;15.00;99.90
13596;DHT22;6868;52.544;13.416;2022-07-29T02:00:37;15.00;99.90
13596;DHT22;6868;52.544;13.416;2022-07-29T02:03:05;14.90;99.90
13596;DHT22;6868;52.544;13.416;2022-07-29T02:05:35;14.90;99.90
13596;DHT22;6868;52.544;13.416;2022-07-29T02:08:03;14.90;99.90
13596;DHT22;6868;52.544;13.416;2022-07-29T02:10:31;14.90;99.90
13596;DHT22;6868;52.544;13.416;2022-07-29T02:12:58;14.90;99.90
13596;DHT22;6868;52.544;13.416;2022-07-29T02:15:26;14.90;99.90
13596;DHT22;6868;52.544;13.416;2022-07-29T02:17:55;15.00;99.90
13596;DHT22;6868;52.544;13.416;2022-07-29T02:20:22;15.00;99.90
13596;DHT22;6868;52.544;13.416;2022-07-29T02:22:52;15.00;99.90
13596;DHT22;6868;52.544;13.416;2022-07-29T02:25:20;15.10;99.90
13596;DHT22;6868;52.544;13.416;2022-07-29T02:27:48;14.90;99.90
13596;DHT22;6868;52.544;13.416;2022-07-29T02:30:16;14.90;99.90
13596;DHT22;6868;52.544;13.416;2022-07-29T02:32:43;14.90;99.90
13596;DHT22;6868;52.544;13.416;2022-07-29T02:35:14;14.90;99.90
13596;DHT22;6868;52.544;13.416;2022-07-29T02:37:41;14.80;99.90
13596;DHT22;6868;52.544;13.416;2022-07-29T02:40:10;14.90;99.90
13596;DHT22;6868;52.544;13.416;2022-07-29T02:42:37;15.00;99.90
13596;DHT22;6868;52.544;13.416;2022-07-29T02:45:05;15.00;99.90
13596;DHT22;6868;52.544;13.416;2022-07-29T02:47:34;14.90;99.90
13596;DHT22;6868;52.544;13.416;2022-07-29T02:50:03;15.00;99.90
13596;DHT22;6868;52.544;13.416;2022-07-29T02:52:34;15.00;99.90
13596;DHT22;6868;52.544;13.416;2022-07-29T02:55:06;15.00;99.90
13596;DHT22;6868;52.544;13.416;2022-07-29T02:57:37;15.00;99.90
13596;DHT22;6868;52.544;13.416;2022-07-29T03:00:05;15.10;99.90
13596;DHT22;6868;52.544;13.416;2022-07-29T03:02:35;15.10;99.90
13596;DHT22;6868;52.544;13.416;2022-07-29T03:05:03;15.10;99.90
13596;DHT22;6868;52.544;13.416;2022-07-29T03:07:30;15.10;99.90
13596;DHT22;6868;52.544;13.416;2022-07-29T03:09:57;15.10;99.90
13596;DHT22;6868;52.544;13.416;2022-07-29T03:12:24;15.20;99.90
13596;DHT22;6868;52.544;13.416;2022-07-29T03:14:53;15.40;99.90
13596;DHT22;6868;52.544;13.416;2022-07-29T03:17:20;15.20;99.90
13596;DHT22;6868;52.544;13.416;2022-07-29T03:19:47;15.20;99.90
13596;DHT22;6868;52.544;13.416;2022-07-29T03:22:14;15.20;99.90
13596;DHT22;6868;52.544;13.416;2022-07-29T03:24:41;15.10;99.90
13596;DHT22;6868;52.544;13.416;2022-07-29T03:27:08;15.10;99.90
13596;DHT22;6868;52.544;13.416;2022-07-29T03:29:34;15.10;99.90
13596;DHT22;6868;52.544;13.416;2022-07-29T03:32:04;15.10;99.90
13596;DHT22;6868;52.544;13.416;2022-07-29T03:34:31;15.10;99.90
13596;DHT22;6868;52.544;13.416;2022-07-29T03:36:58;15.00;99.90
13596;DHT22;6868;52.544;13.416;2022-07-29T03:39:25;15.10;99.90
13596;DHT22;6868;52.544;13.416;2022-07-29T03:41:55;15.10;99.90
13596;DHT22;6868;52.544;13.416;2022-07-29T03:44:22;15.10;99.90
13596;DHT22;6868;52.544;13.416;2022-07-29T03:46:49;15.10;99.90
13596;DHT22;6868;52.544;13.416;2022-07-29T03:49:18;15.00;99.90
13596;DHT22;6868;52.544;13.416;2022-07-29T03:51:46;15.10;99.90
13596;DHT22;6868;52.544;13.416;2022-07-29T03:54:12;15.10;99.90
13596;DHT22;6868;52.544;13.416;2022-07-29T03:56:40;15.10;99.90
13596;DHT22;6868;52.544;13.416;2022-07-29T03:59:08;15.00;99.90
13596;DHT22;6868;52.544;13.416;2022-07-29T04:01:35;15.10;99.90
13596;DHT22;6868;52.544;13.416;2022-07-29T04:04:03;15.10;99.90
13596;DHT22;6868;52.544;13.416;2022-07-29T04:06:38;15.10;99.90
13596;DHT22;6868;52.544;13.416;2022-07-29T04:09:05;15.10;99.90
13596;DHT22;6868;52.544;13.416;2022-07-29T04:11:32;15.20;99.90
13596;DHT22;6868;52.544;13.416;2022-07-29T04:13:59;15.30;99.90
13596;DHT22;6868;52.544;13.416;2022-07-29T04:16:25;15.20;99.90
13596;DHT22;6868;52.544;13.416;2022-07-29T04:18:52;15.20;99.90
13596;DHT22;6868;52.544;13.416;2022-07-29T04:21:19;15.30;99.90
13596;DHT22;6868;52.544;13.416;2022-07-29T04:23:47;15.30;99.90
13596;DHT22;6868;52.544;13.416;2022-07-29T04:26:15;15.40;99.90
13596;DHT22;6868;52.544;13.416;2022-07-29T04:28:41;15.40;99.90
13596;DHT22;6868;52.544;13.416;2022-07-29T04:31:08;15.50;99.90
13596;DHT22;6868;52.544;13.416;2022-07-29T04:33:35;15.60;99.90
13596;DHT22;6868;52.544;13.416;2022-07-29T04:36:02;15.60;99.90
13596;DHT22;6868;52.544;13.416;2022-07-29T04:38:28;15.70;99.90
13596;DHT22;6868;52.544;13.416;2022-07-29T04:40:56;15.80;99.90
13596;DHT22;6868;52.544;13.416;2022-07-29T04:43:23;15.80;99.90
13596;DHT22;6868;52.544;13.416;2022-07-29T04:45:50;15.80;99.90
13596;DHT22;6868;52.544;13.416;2022-07-29T04:48:18;15.90;99.90
13596;DHT22;6868;52.544;13.416;2022-07-29T04:50:45;16.00;99.90
13596;DHT22;6868;52.544;13.416;2022-07-29T04:53:12;16.10;99.90
13596;DHT22;6868;52.544;13.416;2022-07-29T04:55:38;16.10;99.90
13596;DHT22;6868;52.544;13.416;2022-07-29T04:58:06;16.10;99.90
13596;DHT22;6868;52.544;13.416;2022-07-29T05:00:33;16.10;99.90
13596;DHT22;6868;52.544;13.416;2022-07-29T05:03:00;16.10;99.90
13596;DHT22;6868;52.544;13.416;2022-07-29T05:05:27;16.30;99.90
13596;DHT22;6868;52.544;13.416;2022-07-29T05:07:53;16.20;99.90
13596;DHT22;6868;52.544;13.416;2022-07-29T05:10:20;16.30;99.90
13596;DHT22;6868;52.544;13.416;2022-07-29T05:12:47;16.40;99.90
13596;DHT22;6868;52.544;13.416;2022-07-29T05:15:15;16.60;99.90
13596;DHT22;6868;52.544;13.416;2022-07-29T05:17:42;16.70;99.90
13596;DHT22;6868;52.544;13.416;2022-07-29T05:20:09;16.90;99.90
13596;DHT22;6868;52.544;13.416;2022-07-29T05:22:36;17.00;99.90
13596;DHT22;6868;52.544;13.416;2022-07-29T05:25:03;17.20;99.90
13596;DHT22;6868;52.544;13.416;2022-07-29T05:27:31;17.30;99.90
13596;DHT22;6868;52.544;13.416;2022-07-29T05:29:57;17.50;99.90
13596;DHT22;6868;52.544;13.416;2022-07-29T05:32:25;17.70;99.90
13596;DHT22;6868;52.544;13.416;2022-07-29T05:34:52;17.60;99.90
13596;DHT22;6868;52.544;13.416;2022-07-29T05:37:21;17.50;99.90
13596;DHT22;6868;52.544;13.416;2022-07-29T05:39:51;17.40;99.90
13596;DHT22;6868;52.544;13.416;2022-07-29T05:42:18;17.20;99.90
13596;DHT22;6868;52.544;13.416;2022-07-29T05:44:44;17.20;99.90
13596;DHT22;6868;52.544;13.416;2022-07-29T05:47:12;17.20;99.90
13596;DHT22;6868;52.544;13.416;2022-07-29T05:49:40;17.10;99.90
13596;DHT22;6868;52.544;13.416;2022-07-29T05:52:07;17.10;99.90
13596;DHT22;6868;52.544;13.416;2022-07-29T05:54:34;17.10;99.90
13596;DHT22;6868;52.544;13.416;2022-07-29T05:57:01;17.00;99.90
13596;DHT22;6868;52.544;13.416;2022-07-29T05:59:28;17.00;99.90
13596;DHT22;6868;52.544;13.416;2022-07-29T06:01:55;17.20;99.90
13596;DHT22;6868;52.544;13.416;2022-07-29T06:04:22;17.40;99.90
13596;DHT22;6868;52.544;13.416;2022-07-29T06:06:50;17.80;99.90
13596;DHT22;6868;52.544;13.416;2022-07-29T06:09:17;17.80;99.90
13596;DHT22;6868;52.544;13.416;2022-07-29T06:11:44;18.20;99.90
13596;DHT22;6868;52.544;13.416;2022-07-29T06:14:10;18.50;99.90
13596;DHT22;6868;52.544;13.416;2022-07-29T06:16:40;18.40;99.90
13596;DHT22;6868;52.544;13.416;2022-07-29T06:19:07;18.30;99.90
13596;DHT22;6868;52.544;13.416;2022-07-29T06:21:35;18.50;99.90
13596;DHT22;6868;52.544;13.416;2022-07-29T06:24:03;19.50;99.90
13596;DHT22;6868;52.544;13.416;2022-07-29T06:26:30;19.70;99.90
13596;DHT22;6868;52.544;13.416;2022-07-29T06:28:56;20.60;99.90
13596;DHT22;6868;52.544;13.416;2022-07-29T06:31:23;20.80;99.90
13596;DHT22;6868;52.544;13.416;2022-07-29T06:33:50;20.80;99.90
13596;DHT22;6868;52.544;13.416;2022-07-29T06:36:18;20.70;99.90
13596;DHT22;6868;52.544;13.416;2022-07-29T06:38:44;20.40;99.90
13596;DHT22;6868;52.544;13.416;2022-07-29T06:41:12;20.20;99.90
13596;DHT22;6868;52.544;13.416;2022-07-29T06:43:41;20.10;99.90
13596;DHT22;6868;52.544;13.416;2022-07-29T06:46:09;19.90;99.90
13596;DHT22;6868;52.544;13.416;2022-07-29T06:48:38;19.70;99.90
13596;DHT22;6868;52.544;13.416;2022-07-29T06:51:05;19.50;99.90
13596;DHT22;6868;52.544;13.416;2022-07-29T06:53:32;19.40;99.90
13596;DHT22;6868;52.544;13.416;2022-07-29T06:55:59;19.40;99.90
13596;DHT22;6868;52.544;13.416;2022-07-29T06:58:28;19.50;99.90
13596;DHT22;6868;52.544;13.416;2022-07-29T07:00:55;19.60;99.90
13596;DHT22;6868;52.544;13.416;2022-07-29T07:03:22;19.60;99.90
13596;DHT22;6868;52.544;13.416;2022-07-29T07:05:49;19.70;99.90
13596;DHT22;6868;52.544;13.416;2022-07-29T07:08:16;19.90;99.90
13596;DHT22;6868;52.544;13.416;2022-07-29T07:10:42;20.00;99.90
13596;DHT22;6868;52.544;13.416;2022-07-29T07:13:09;20.20;99.90
13596;DHT22;6868;52.544;13.416;2022-07-29T07:15:37;20.40;99.90
13596;DHT22;6868;52.544;13.416;2022-07-29T07:18:05;20.70;99.90
13596;DHT22;6868;52.544;13.416;2022-07-29T07:20:32;21.00;99.90
13596;DHT22;6868;52.544;13.416;2022-07-29T07:22:59;21.50;99.90
13596;DHT22;6868;52.544;13.416;2022-07-29T07:25:26;21.60;99.90
13596;DHT22;6868;52.544;13.416;2022-07-29T07:27:53;22.00;99.90
13596;DHT22;6868;52.544;13.416;2022-07-29T07:30:20;22.40;99.90
13596;DHT22;6868;52.544;13.416;2022-07-29T07:32:48;23.00;99.90
13596;DHT22;6868;52.544;13.416;2022-07-29T07:35:15;24.00;99.90
13596;DHT22;6868;52.544;13.416;2022-07-29T07:37:42;24.30;99.90
13596;DHT22;6868;52.544;13.416;2022-07-29T07:40:10;24.70;99.90
13596;DHT22;6868;52.544;13.416;2022-07-29T07:42:37;24.60;99.90
13596;DHT22;6868;52.544;13.416;2022-07-29T07:45:04;24.80;99.90
13596;DHT22;6868;52.544;13.416;2022-07-29T07:47:31;25.60;99.90
13596;DHT22;6868;52.544;13.416;2022-07-29T07:50:07;25.80;99.90
13596;DHT22;6868;52.544;13.416;2022-07-29T07:52:47;26.60;99.90
13596;DHT22;6868;52.544;13.416;2022-07-29T07:55:17;26.30;99.90
13596;DHT22;6868;52.544;13.416;2022-07-29T07:57:46;25.80;99.90
13596;DHT22;6868;52.544;13.416;2022-07-29T08:00:15;25.80;99.10
13596;DHT22;6868;52.544;13.416;2022-07-29T08:02:43;26.20;98.00
13596;DHT22;6868;52.544;13.416;2022-07-29T08:05:11;26.40;96.50
13596;DHT22;6868;52.544;13.416;2022-07-29T08:07:42;26.30;94.60
13596;DHT22;6868;52.544;13.416;2022-07-29T08:10:09;26.80;93.00
13596;DHT22;6868;52.544;13.416;2022-07-29T08:12:35;26.80;90.70
13596;DHT22;6868;52.544;13.416;2022-07-29T08:15:02;26.40;90.50
13596;DHT22;6868;52.544;13.416;2022-07-29T08:17:29;26.20;92.10
13596;DHT22;6868;52.544;13.416;2022-07-29T08:19:56;26.60;90.50
13596;DHT22;6868;52.544;13.416;2022-07-29T08:22:24;26.50;87.50
13596;DHT22;6868;52.544;13.416;2022-07-29T08:24:51;26.60;87.60
13596;DHT22;6868;52.544;13.416;2022-07-29T08:27:21;26.60;85.70
13596;DHT22;6868;52.544;13.416;2022-07-29T08:29:48;26.90;84.80
13596;DHT22;6868;52.544;13.416;2022-07-29T08:32:15;27.10;83.20
13596;DHT22;6868;52.544;13.416;2022-07-29T08:34:41;25.80;84.80
13596;DHT22;6868;52.544;13.416;2022-07-29T08:37:11;25.30;88.70
13596;DHT22;6868;52.544;13.416;2022-07-29T08:42:06;24.60;91.40
13596;DHT22;6868;52.544;13.416;2022-07-29T08:44:35;24.60;92.00
13596;DHT22;6868;52.544;13.416;2022-07-29T08:49:30;24.20;92.20
13596;DHT22;6868;52.544;13.416;2022-07-29T08:51:57;24.30;92.70
13596;DHT22;6868;52.544;13.416;2022-07-29T08:54:24;24.40;92.70
13596;DHT22;6868;52.544;13.416;2022-07-29T08:56:51;24.50;92.30
13596;DHT22;6868;52.544;13.416;2022-07-29T08:59:20;24.30;91.40
13596;DHT22;6868;52.544;13.416;2022-07-29T09:02:03;24.20;91.50
13596;DHT22;6868;52.544;13.416;2022-07-29T09:04:31;24.00;91.70
13596;DHT22;6868;52.544;13.416;2022-07-29T09:07:00;23.80;90.80
13596;DHT22;6868;52.544;13.416;2022-07-29T09:09:30;23.70;92.40
13596;DHT22;6868;52.544;13.416;2022-07-29T09:11:59;23.60;92.80
13596;DHT22;6868;52.544;13.416;2022-07-29T09:14:27;23.60;94.40
13596;DHT22;6868;52.544;13.416;2022-07-29T09:16:54;23.70;94.70
13596;DHT22;6868;52.544;13.416;2022-07-29T09:19:30;23.90;92.90
13596;DHT22;6868;52.544;13.416;2022-07-29T09:21:59;24.00;92.50
13596;DHT22;6868;52.544;13.416;2022-07-29T09:24:27;24.30;92.30
13596;DHT22;6868;52.544;13.416;2022-07-29T09:26:55;24.30;91.50
13596;DHT22;6868;52.544;13.416;2022-07-29T09:29:22;24.50;90.40
13596;DHT22;6868;52.544;13.416;2022-07-29T09:31:51;24.40;90.10
13596;DHT22;6868;52.544;13.416;2022-07-29T09:34:21;24.50;90.10
13596;DHT22;6868;52.544;13.416;2022-07-29T09:36:49;24.40;90.30
13596;DHT22;6868;52.544;13.416;2022-07-29T09:39:26;24.60;89.70
13596;DHT22;6868;52.544;13.416;2022-07-29T09:41:53;24.50;88.90
13596;DHT22;6868;52.544;13.416;2022-07-29T09:44:20;24.70;87.10
13596;DHT22;6868;52.544;13.416;2022-07-29T09:46:56;24.70;85.80
13596;DHT22;6868;52.544;13.416;2022-07-29T09:49:23;24.70;83.60
13596;DHT22;6868;52.544;13.416;2022-07-29T09:51:58;24.50;83.80
13596;DHT22;6868;52.544;13.416;2022-07-29T09:54:26;24.50;82.90
13596;DHT22;6868;52.544;13.416;2022-07-29T09:57:02;24.50;83.60
13596;DHT22;6868;52.544;13.416;2022-07-29T09:59:29;24.40;83.80
13596;DHT22;6868;52.544;13.416;2022-07-29T10:01:57;24.40;84.10
13596;DHT22;6868;52.544;13.416;2022-07-29T10:04:24;24.50;83.40
13596;DHT22;6868;52.544;13.416;2022-07-29T10:06:56;24.60;81.50
13596;DHT22;6868;52.544;13.416;2022-07-29T10:09:25;24.90;80.10
13596;DHT22;6868;52.544;13.416;2022-07-29T10:12:02;25.10;76.00
13596;DHT22;6868;52.544;13.416;2022-07-29T10:14:30;25.40;72.10
13596;DHT22;6868;52.544;13.416;2022-07-29T10:16:58;25.40;73.10
13596;DHT22;6868;52.544;13.416;2022-07-29T10:19:25;25.30;73.10
13596;DHT22;6868;52.544;13.416;2022-07-29T10:21:52;25.20;70.00
13596;DHT22;6868;52.544;13.416;2022-07-29T10:24:21;25.20;70.40
13596;DHT22;6868;52.544;13.416;2022-07-29T10:26:48;25.40;70.60
13596;DHT22;6868;52.544;13.416;2022-07-29T10:29:15;25.70;68.10
13596;DHT22;6868;52.544;13.416;2022-07-29T10:31:43;25.80;63.90
13596;DHT22;6868;52.544;13.416;2022-07-29T10:34:16;26.00;63.40
13596;DHT22;6868;52.544;13.416;2022-07-29T10:36:49;26.00;60.80
13596;DHT22;6868;52.544;13.416;2022-07-29T10:39:24;25.70;59.20
13596;DHT22;6868;52.544;13.416;2022-07-29T10:42:00;25.40;59.50
13596;DHT22;6868;52.544;13.416;2022-07-29T10:44:28;25.20;58.70
13596;DHT22;6868;52.544;13.416;2022-07-29T10:46:57;25.20;62.20
13596;DHT22;6868;52.544;13.416;2022-07-29T10:49:25;25.50;62.70
13596;DHT22;6868;52.544;13.416;2022-07-29T10:51:58;25.60;62.40
13596;DHT22;6868;52.544;13.416;2022-07-29T10:54:42;25.70;59.60
13596;DHT22;6868;52.544;13.416;2022-07-29T10:57:11;26.00;59.30
13596;DHT22;6868;52.544;13.416;2022-07-29T10:59:38;26.10;58.10
13596;DHT22;6868;52.544;13.416;2022-07-29T11:02:09;26.00;58.10
13596;DHT22;6868;52.544;13.416;2022-07-29T11:05:04;26.00;58.10
13596;DHT22;6868;52.544;13.416;2022-07-29T11:07:31;26.00;57.70
13596;DHT22;6868;52.544;13.416;2022-07-29T11:12:49;25.90;59.40
13596;DHT22;6868;52.544;13.416;2022-07-29T11:15:17;25.90;58.40
13596;DHT22;6868;52.544;13.416;2022-07-29T11:20:36;26.00;58.40
13596;DHT22;6868;52.544;13.416;2022-07-29T11:25:45;26.00;58.40
13596;DHT22;6868;52.544;13.416;2022-07-29T11:28:13;26.10;58.10
13596;DHT22;6868;52.544;13.416;2022-07-29T11:30:49;26.40;58.30
13596;DHT22;6868;52.544;13.416;2022-07-29T11:38:40;27.10;56.20
13596;DHT22;6868;52.544;13.416;2022-07-29T11:41:20;27.00;56.60
13596;DHT22;6868;52.544;13.416;2022-07-29T11:43:47;27.00;57.10
13596;DHT22;6868;52.544;13.416;2022-07-29T11:46:18;27.10;56.80
13596;DHT22;6868;52.544;13.416;2022-07-29T11:48:45;27.20;57.50
13596;DHT22;6868;52.544;13.416;2022-07-29T11:51:11;27.10;57.60
13596;DHT22;6868;52.544;13.416;2022-07-29T11:53:39;27.00;58.70
13596;DHT22;6868;52.544;13.416;2022-07-29T11:56:07;27.00;58.70
13596;DHT22;6868;52.544;13.416;2022-07-29T11:58:35;27.00;58.90
13596;DHT22;6868;52.544;13.416;2022-07-29T12:01:02;27.20;58.30
13596;DHT22;6868;52.544;13.416;2022-07-29T12:03:30;26.90;58.30
13596;DHT22;6868;52.544;13.416;2022-07-29T12:05:57;26.70;60.00
13596;DHT22;6868;52.544;13.416;2022-07-29T12:08:24;26.60;61.90
13596;DHT22;6868;52.544;13.416;2022-07-29T12:10:53;26.60;63.00
13596;DHT22;6868;52.544;13.416;2022-07-29T12:13:20;26.80;64.30
13596;DHT22;6868;52.544;13.416;2022-07-29T12:15:53;27.00;64.30
13596;DHT22;6868;52.544;13.416;2022-07-29T12:18:20;27.30;64.10
13596;DHT22;6868;52.544;13.416;2022-07-29T12:20:47;27.40;64.10
13596;DHT22;6868;52.544;13.416;2022-07-29T12:23:15;27.40;64.90
13596;DHT22;6868;52.544;13.416;2022-07-29T12:25:42;27.40;66.20
13596;DHT22;6868;52.544;13.416;2022-07-29T12:28:11;27.40;67.20
13596;DHT22;6868;52.544;13.416;2022-07-29T12:30:40;27.20;67.70
13596;DHT22;6868;52.544;13.416;2022-07-29T12:33:11;27.40;68.90
13596;DHT22;6868;52.544;13.416;2022-07-29T12:35:37;27.40;69.70
13596;DHT22;6868;52.544;13.416;2022-07-29T12:38:05;27.20;71.20
13596;DHT22;6868;52.544;13.416;2022-07-29T12:40:31;27.20;71.80
13596;DHT22;6868;52.544;13.416;2022-07-29T12:43:04;27.30;71.50
13596;DHT22;6868;52.544;13.416;2022-07-29T12:45:33;27.20;71.40
13596;DHT22;6868;52.544;13.416;2022-07-29T12:47:59;27.30;70.60
13596;DHT22;6868;52.544;13.416;2022-07-29T12:50:28;27.40;69.20
13596;DHT22;6868;52.544;13.416;2022-07-29T12:53:07;27.60;70.50
13596;DHT22;6868;52.544;13.416;2022-07-29T12:55:41;27.80;71.70
13596;DHT22;6868;52.544;13.416;2022-07-29T12:58:08;27.50;70.10
13596;DHT22;6868;52.544;13.416;2022-07-29T13:00:36;27.20;72.00
13596;DHT22;6868;52.544;13.416;2022-07-29T13:03:02;27.10;72.80
13596;DHT22;6868;52.544;13.416;2022-07-29T13:05:40;27.00;72.30
13596;DHT22;6868;52.544;13.416;2022-07-29T13:08:11;27.10;72.50
13596;DHT22;6868;52.544;13.416;2022-07-29T13:10:37;27.20;72.50
13596;DHT22;6868;52.544;13.416;2022-07-29T13:13:05;27.50;70.40
13596;DHT22;6868;52.544;13.416;2022-07-29T13:15:33;27.80;70.70
13596;DHT22;6868;52.544;13.416;2022-07-29T13:18:01;28.00;69.50
13596;DHT22;6868;52.544;13.416;2022-07-29T13:20:29;28.00;68.20
13596;DHT22;6868;52.544;13.416;2022-07-29T13:22:56;27.90;68.10
13596;DHT22;6868;52.544;13.416;2022-07-29T13:25:23;27.60;68.30
13596;DHT22;6868;52.544;13.416;2022-07-29T13:27:50;27.40;70.20
13596;DHT22;6868;52.544;13.416;2022-07-29T13:30:20;27.50;69.30
13596;DHT22;6868;52.544;13.416;2022-07-29T13:32:47;27.70;68.90
13596;DHT22;6868;52.544;13.416;2022-07-29T13:35:16;28.00;68.20
13596;DHT22;6868;52.544;13.416;2022-07-29T13:37:43;28.00;67.30
13596;DHT22;6868;52.544;13.416;2022-07-29T13:40:10;28.20;68.00
13596;DHT22;6868;52.544;13.416;2022-07-29T13:42:39;28.30;67.00
13596;DHT22;6868;52.544;13.416;2022-07-29T13:45:07;27.80;67.10
13596;DHT22;6868;52.544;13.416;2022-07-29T13:47:34;27.70;67.80
13596;DHT22;6868;52.544;13.416;2022-07-29T13:50:01;27.80;68.70
13596;DHT22;6868;52.544;13.416;2022-07-29T13:52:31;27.60;68.60
13596;DHT22;6868;52.544;13.416;2022-07-29T13:54:58;27.40;70.00
13596;DHT22;6868;52.544;13.416;2022-07-29T13:57:25;27.20;70.30
13596;DHT22;6868;52.544;13.416;2022-07-29T13:59:52;27.00;70.80
13596;DHT22;6868;52.544;13.416;2022-07-29T14:02:18;27.20;70.90
13596;DHT22;6868;52.544;13.416;2022-07-29T14:04:45;27.30;68.90
13596;DHT22;6868;52.544;13.416;2022-07-29T14:07:12;27.40;69.20
13596;DHT22;6868;52.544;13.416;2022-07-29T14:09:40;27.60;68.70
13596;DHT22;6868;52.544;13.416;2022-07-29T14:12:07;27.80;69.10
13596;DHT22;6868;52.544;13.416;2022-07-29T14:14:34;28.20;67.00
13596;DHT22;6868;52.544;13.416;2022-07-29T14:17:02;28.40;65.70
13596;DHT22;6868;52.544;13.416;2022-07-29T14:19:31;28.60;65.40
13596;DHT22;6868;52.544;13.416;2022-07-29T14:22:01;28.40;64.80
13596;DHT22;6868;52.544;13.416;2022-07-29T14:24:28;28.10;65.30
13596;DHT22;6868;52.544;13.416;2022-07-29T14:26:56;27.80;66.30
13596;DHT22;6868;52.544;13.416;2022-07-29T14:29:23;27.70;67.10
13596;DHT22;6868;52.544;13.416;2022-07-29T14:31:49;28.00;67.60
13596;DHT22;6868;52.544;13.416;2022-07-29T14:34:16;28.50;65.40
13596;DHT22;6868;52.544;13.416;2022-07-29T14:36:43;28.50;64.30
13596;DHT22;6868;52.544;13.416;2022-07-29T14:39:10;28.10;66.10
13596;DHT22;6868;52.544;13.416;2022-07-29T14:41:38;27.80;66.10
13596;DHT22;6868;52.544;13.416;2022-07-29T14:44:06;27.80;66.40
13596;DHT22;6868;52.544;13.416;2022-07-29T14:46:32;27.90;65.80
13596;DHT22;6868;52.544;13.416;2022-07-29T14:48:59;28.10;65.30
13596;DHT22;6868;52.544;13.416;2022-07-29T14:51:26;28.00;64.70
13596;DHT22;6868;52.544;13.416;2022-07-29T14:53:52;28.00;64.60
13596;DHT22;6868;52.544;13.416;2022-07-29T14:56:21;27.90;63.70
13596;DHT22;6868;52.544;13.416;2022-07-29T14:58:48;27.80;62.40
13596;DHT22;6868;52.544;13.416;2022-07-29T15:01:16;28.00;62.60
13596;DHT22;6868;52.544;13.416;2022-07-29T15:03:43;28.30;61.10
13596;DHT22;6868;52.544;13.416;2022-07-29T15:06:11;28.50;60.40
13596;DHT22;6868;52.544;13.416;2022-07-29T15:08:37;28.50;60.80
13596;DHT22;6868;52.544;13.416;2022-07-29T15:11:04;28.40;60.70
13596;DHT22;6868;52.544;13.416;2022-07-29T15:13:31;28.50;61.60
13596;DHT22;6868;52.544;13.416;2022-07-29T15:15:59;28.70;60.80
13596;DHT22;6868;52.544;13.416;2022-07-29T15:18:27;28.60;60.60
13596;DHT22;6868;52.544;13.416;2022-07-29T15:20:54;28.60;59.80
13596;DHT22;6868;52.544;13.416;2022-07-29T15:23:21;28.60;59.80
13596;DHT22;6868;52.544;13.416;2022-07-29T15:25:48;28.50;59.10
13596;DHT22;6868;52.544;13.416;2022-07-29T15:28:15;28.40;59.30
13596;DHT22;6868;52.544;13.416;2022-07-29T15:30:42;28.30;59.30
13596;DHT22;6868;52.544;13.416;2022-07-29T15:33:09;28.00;59.30
13596;DHT22;6868;52.544;13.416;2022-07-29T15:35:37;28.00;59.80
13596;DHT22;6868;52.544;13.416;2022-07-29T15:38:04;27.80;59.70
13596;DHT22;6868;52.544;13.416;2022-07-29T15:40:33;27.70;60.10
13596;DHT22;6868;52.544;13.416;2022-07-29T15:43:01;27.60;60.50
13596;DHT22;6868;52.544;13.416;2022-07-29T15:45:34;27.50;60.90
13596;DHT22;6868;52.544;13.416;2022-07-29T15:48:02;27.50;61.60
13596;DHT22;6868;52.544;13.416;2022-07-29T15:50:29;27.30;61.50
13596;DHT22;6868;52.544;13.416;2022-07-29T15:52:57;27.20;61.80
13596;DHT22;6868;52.544;13.416;2022-07-29T15:55:25;27.20;62.70